Time;durP1;ratioP1;P1;durP2;ratioP2;P2;SDS_P1;SDS_P2;PMS_P1;PMS_P2;Temp;Humidity;BMP_temperature;BMP_pressure;BME280_temperature;BME280_humidity;BME280_pressure;Samples;Min_cycle;Max_cycle;Signal;HPM_P1;HPM_P2
2021/05/26 00:00:52;;;;;;;10.23;4.60;;;;;;;;;;5019157;28;20057;-70
2021/05/26 00:03:19;;;;;;;8.55;4.10;;;;;;;;;;5021460;28;20485;-71
2021/05/26 00:05:46;;;;;;;7.97;4.22;;;;;;;;;;5019875;28;20053;-70
2021/05/26 00:08:13;;;;;;;8.07;3.80;;;;;;;;;;5017862;28;20046;-70
2021/05/26 00:10:39;;;;;;;11.15;5.05;;;;;;;;;;5014739;28;20041;-70
2021/05/26 00:13:06;;;;;;;11.45;6.40;;;;;;;;;;5024434;28;20064;-70
2021/05/26 00:15:32;;;;;;;7.82;4.60;;;;;;;;;;5000916;28;20065;-70
2021/05/26 00:17:58;;;;;;;9.63;4.93;;;;;;;;;;5014857;28;20112;-70
2021/05/26 00:20:24;;;;;;;8.93;4.63;;;;;;;;;;5015427;28;20064;-70
2021/05/26 00:22:51;;;;;;;10.25;5.25;;;;;;;;;;5018618;28;20127;-70
2021/05/26 00:25:17;;;;;;;11.88;4.78;;;;;;;;;;5019257;28;20042;-70
2021/05/26 00:27:44;;;;;;;8.48;4.75;;;;;;;;;;5016501;28;20037;-70
2021/05/26 00:30:10;;;;;;;8.02;4.43;;;;;;;;;;4997898;28;20050;-70
2021/05/26 00:32:37;;;;;;;10.07;4.70;;;;;;;;;;5015465;28;20040;-70
2021/05/26 00:35:03;;;;;;;6.20;4.43;;;;;;;;;;5015726;28;20073;-70
2021/05/26 00:37:30;;;;;;;7.40;4.57;;;;;;;;;;5016292;28;20128;-70
2021/05/26 00:39:56;;;;;;;6.78;4.95;;;;;;;;;;5013669;28;20076;-70
2021/05/26 00:42:22;;;;;;;11.50;5.57;;;;;;;;;;5018494;28;20073;-70
2021/05/26 00:44:53;;;;;;;7.53;4.00;;;;;;;;;;5018528;28;20041;-70
2021/05/26 00:47:36;;;;;;;8.05;4.32;;;;;;;;;;5014356;28;20064;-70
2021/05/26 00:50:03;;;;;;;9.20;4.78;;;;;;;;;;5015863;28;20124;-70
2021/05/26 00:52:29;;;;;;;9.55;4.97;;;;;;;;;;5022331;28;20489;-70
2021/05/26 00:54:55;;;;;;;15.02;5.22;;;;;;;;;;5015351;28;20144;-70
2021/05/26 00:57:22;;;;;;;6.28;4.15;;;;;;;;;;5020060;28;20148;-70
2021/05/26 00:59:48;;;;;;;6.15;3.95;;;;;;;;;;5013882;28;20107;-70
2021/05/26 01:02:15;;;;;;;9.90;5.20;;;;;;;;;;5012969;28;20516;-70
2021/05/26 01:04:41;;;;;;;12.63;5.32;;;;;;;;;;5020544;28;20073;-70
2021/05/26 01:07:10;;;;;;;8.80;5.07;;;;;;;;;;5021716;28;20053;-70
2021/05/26 01:09:36;;;;;;;10.43;4.80;;;;;;;;;;5018535;28;20044;-70
2021/05/26 01:12:02;;;;;;;13.13;4.78;;;;;;;;;;5001852;28;20505;-70
2021/05/26 01:14:29;;;;;;;7.30;4.60;;;;;;;;;;5010304;28;20049;-70
2021/05/26 01:16:55;;;;;;;9.05;4.93;;;;;;;;;;5011439;28;20052;-70
2021/05/26 01:19:22;;;;;;;9.68;5.63;;;;;;;;;;5022023;28;20054;-70
2021/05/26 01:21:49;;;;;;;10.88;5.85;;;;;;;;;;5016328;28;20046;-70
2021/05/26 01:24:15;;;;;;;7.65;5.03;;;;;;;;;;5016346;28;20103;-70
2021/05/26 01:26:42;;;;;;;8.15;5.50;;;;;;;;;;5015847;28;20041;-70
2021/05/26 01:29:08;;;;;;;13.52;6.25;;;;;;;;;;5016216;28;20056;-70
2021/05/26 01:31:34;;;;;;;14.75;7.53;;;;;;;;;;5016462;28;20042;-70
2021/05/26 01:34:00;;;;;;;12.13;6.85;;;;;;;;;;5017641;28;20135;-70
2021/05/26 01:36:29;;;;;;;14.45;7.00;;;;;;;;;;5022904;28;20045;-70
2021/05/26 01:38:55;;;;;;;17.27;7.95;;;;;;;;;;5016345;28;20053;-70
2021/05/26 01:41:21;;;;;;;14.30;8.15;;;;;;;;;;5014099;28;20056;-71
2021/05/26 01:43:47;;;;;;;14.85;6.95;;;;;;;;;;5020793;28;20057;-70
2021/05/26 01:46:14;;;;;;;14.27;7.78;;;;;;;;;;5013221;28;20056;-71
2021/05/26 01:48:40;;;;;;;16.60;7.70;;;;;;;;;;5021939;28;20144;-70
2021/05/26 01:51:06;;;;;;;13.30;7.45;;;;;;;;;;5022233;28;20104;-70
2021/05/26 01:53:32;;;;;;;13.80;7.68;;;;;;;;;;5022633;28;20041;-70
2021/05/26 01:55:59;;;;;;;12.43;7.03;;;;;;;;;;5024412;28;20045;-71
2021/05/26 01:58:25;;;;;;;18.45;7.55;;;;;;;;;;5018215;28;20053;-71
2021/05/26 02:00:51;;;;;;;13.60;6.57;;;;;;;;;;5022398;28;20174;-70
2021/05/26 02:03:18;;;;;;;12.75;6.75;;;;;;;;;;5020471;28;20517;-71
2021/05/26 02:05:44;;;;;;;10.02;6.78;;;;;;;;;;5002656;28;20092;-70
2021/05/26 02:08:10;;;;;;;13.65;7.10;;;;;;;;;;5022163;28;20054;-70
2021/05/26 02:13:22;;;;;;;12.85;8.30;;;;;;;;;;5021093;28;20405;-70
2021/05/26 02:15:48;;;;;;;12.20;8.52;;;;;;;;;;5019131;28;20054;-71
2021/05/26 02:18:14;;;;;;;11.30;8.32;;;;;;;;;;5019763;28;20041;-71
2021/05/26 02:20:40;;;;;;;17.48;10.20;;;;;;;;;;5020004;28;20037;-70
2021/05/26 02:23:06;;;;;;;13.20;9.98;;;;;;;;;;5019861;28;20068;-71
2021/05/26 02:25:33;;;;;;;17.08;11.02;;;;;;;;;;5020704;28;20405;-71
2021/05/26 02:27:59;;;;;;;15.55;10.68;;;;;;;;;;5007674;28;20037;-70
2021/05/26 02:30:25;;;;;;;14.65;10.43;;;;;;;;;;5021527;28;20045;-70
2021/05/26 02:32:51;;;;;;;18.02;10.98;;;;;;;;;;5019886;28;20075;-70
2021/05/26 02:35:18;;;;;;;14.50;10.63;;;;;;;;;;5019215;28;20041;-70
2021/05/26 02:37:44;;;;;;;16.35;10.80;;;;;;;;;;5024030;28;20071;-70
2021/05/26 02:40:12;;;;;;;15.88;10.07;;;;;;;;;;5018884;28;20496;-70
2021/05/26 02:42:38;;;;;;;13.80;10.13;;;;;;;;;;5022587;28;20231;-70
2021/05/26 02:45:05;;;;;;;17.10;10.95;;;;;;;;;;5021964;28;20141;-71
2021/05/26 02:47:31;;;;;;;16.30;11.68;;;;;;;;;;5023994;28;20057;-70
2021/05/26 02:49:57;;;;;;;22.77;12.60;;;;;;;;;;5023552;28;20056;-70
2021/05/26 02:52:23;;;;;;;17.17;11.70;;;;;;;;;;5024697;28;20041;-70
2021/05/26 02:54:50;;;;;;;22.80;13.55;;;;;;;;;;5021917;28;20038;-70
2021/05/26 02:57:16;;;;;;;15.88;12.73;;;;;;;;;;5025854;28;20104;-70
2021/05/26 02:59:42;;;;;;;17.65;12.68;;;;;;;;;;5018118;28;20083;-71
2021/05/26 03:02:08;;;;;;;22.90;14.27;;;;;;;;;;5017952;28;20509;-70
2021/05/26 03:04:35;;;;;;;18.25;12.57;;;;;;;;;;5019196;28;20049;-71
2021/05/26 03:07:01;;;;;;;19.60;13.85;;;;;;;;;;5016209;28;20052;-70
2021/05/26 03:09:27;;;;;;;18.77;13.82;;;;;;;;;;5019086;28;20500;-70
2021/05/26 03:11:54;;;;;;;20.25;13.55;;;;;;;;;;5017638;28;20045;-71
2021/05/26 03:14:20;;;;;;;22.83;14.38;;;;;;;;;;5015272;28;20060;-70
2021/05/26 03:16:46;;;;;;;17.83;12.60;;;;;;;;;;5018027;28;20492;-70
2021/05/26 03:19:12;;;;;;;16.88;11.70;;;;;;;;;;5020408;28;20046;-70
2021/05/26 03:21:39;;;;;;;18.50;12.13;;;;;;;;;;5016054;28;20060;-71
2021/05/26 03:24:07;;;;;;;15.30;11.23;;;;;;;;;;5011955;28;20107;-70
2021/05/26 03:26:33;;;;;;;16.33;11.30;;;;;;;;;;5021425;28;20473;-70
2021/05/26 03:29:00;;;;;;;16.42;10.25;;;;;;;;;;5019187;28;20049;-71
2021/05/26 03:31:26;;;;;;;15.23;11.05;;;;;;;;;;5002088;28;20110;-70
2021/05/26 03:33:52;;;;;;;13.68;10.48;;;;;;;;;;5016251;28;20053;-71
2021/05/26 03:36:18;;;;;;;14.85;9.93;;;;;;;;;;5020621;28;20100;-71
2021/05/26 03:38:44;;;;;;;16.75;9.40;;;;;;;;;;5015169;28;20053;-70
2021/05/26 03:41:11;;;;;;;15.15;10.32;;;;;;;;;;5013290;28;20504;-71
2021/05/26 03:43:37;;;;;;;19.63;11.32;;;;;;;;;;5017399;28;20091;-70
2021/05/26 03:46:03;;;;;;;13.02;9.35;;;;;;;;;;5014027;28;20053;-70
2021/05/26 03:48:29;;;;;;;12.50;9.35;;;;;;;;;;5018715;28;20041;-70
2021/05/26 03:50:55;;;;;;;17.40;8.77;;;;;;;;;;5015203;28;20490;-70
2021/05/26 03:53:22;;;;;;;15.15;8.60;;;;;;;;;;5017020;28;20452;-70
2021/05/26 03:55:48;;;;;;;15.75;7.55;;;;;;;;;;5019579;28;20053;-71
2021/05/26 03:58:15;;;;;;;13.38;7.72;;;;;;;;;;5020302;28;20041;-70
2021/05/26 04:00:41;;;;;;;14.50;7.47;;;;;;;;;;5017763;28;20048;-70
2021/05/26 04:03:07;;;;;;;16.92;8.85;;;;;;;;;;5021603;28;20116;-70
2021/05/26 04:05:34;;;;;;;16.65;8.60;;;;;;;;;;5011493;28;20402;-71
2021/05/26 04:08:01;;;;;;;19.92;9.93;;;;;;;;;;5013738;28;20068;-70
2021/05/26 04:10:27;;;;;;;11.82;9.55;;;;;;;;;;5018868;28;20041;-71
2021/05/26 04:12:53;;;;;;;19.38;11.32;;;;;;;;;;5017837;28;20076;-71
2021/05/26 04:15:19;;;;;;;18.38;11.57;;;;;;;;;;5014068;28;20080;-70
2021/05/26 04:17:45;;;;;;;17.27;11.88;;;;;;;;;;5016852;28;20127;-71
2021/05/26 04:20:12;;;;;;;21.25;12.50;;;;;;;;;;5018534;28;20128;-70
2021/05/26 04:22:38;;;;;;;17.48;11.98;;;;;;;;;;5018054;28;20481;-70
2021/05/26 04:25:05;;;;;;;18.95;12.05;;;;;;;;;;4995631;28;20042;-70
2021/05/26 04:27:31;;;;;;;18.90;11.70;;;;;;;;;;5019307;28;20041;-71
2021/05/26 04:29:59;;;;;;;15.43;10.85;;;;;;;;;;5021171;28;20057;-70
2021/05/26 04:32:25;;;;;;;19.45;10.90;;;;;;;;;;5015821;28;20049;-70
2021/05/26 04:34:51;;;;;;;15.60;11.00;;;;;;;;;;5016968;28;20041;-70
2021/05/26 04:37:18;;;;;;;15.75;11.90;;;;;;;;;;5018189;28;20393;-71
2021/05/26 04:39:45;;;;;;;16.35;11.85;;;;;;;;;;5024217;28;20531;-71
2021/05/26 04:42:11;;;;;;;12.98;9.68;;;;;;;;;;5026296;28;20030;-71
2021/05/26 04:44:37;;;;;;;16.15;10.90;;;;;;;;;;5028325;28;20050;-70
2021/05/26 04:47:03;;;;;;;19.85;10.02;;;;;;;;;;5024376;28;20113;-71
2021/05/26 04:49:30;;;;;;;18.55;11.20;;;;;;;;;;5026527;28;20045;-70
2021/05/26 04:51:57;;;;;;;15.02;12.10;;;;;;;;;;5024970;28;20069;-70
2021/05/26 04:54:23;;;;;;;19.50;11.82;;;;;;;;;;5024024;28;20519;-70
2021/05/26 04:56:49;;;;;;;14.07;9.98;;;;;;;;;;5021375;28;20406;-70
2021/05/26 04:59:16;;;;;;;20.90;11.57;;;;;;;;;;5021386;28;20061;-71
2021/05/26 05:01:42;;;;;;;15.85;10.98;;;;;;;;;;5025521;28;20768;-70
2021/05/26 05:04:08;;;;;;;14.52;11.07;;;;;;;;;;5029807;28;20037;-70
2021/05/26 05:06:35;;;;;;;23.83;11.60;;;;;;;;;;5029641;28;20046;-70
2021/05/26 05:09:02;;;;;;;16.95;11.80;;;;;;;;;;5027665;28;20137;-71
2021/05/26 05:11:28;;;;;;;14.43;10.43;;;;;;;;;;5025701;28;20037;-71
2021/05/26 05:13:55;;;;;;;19.77;10.77;;;;;;;;;;5011746;28;20053;-71
2021/05/26 05:16:21;;;;;;;17.83;11.57;;;;;;;;;;5011714;28;20044;-70
2021/05/26 05:18:47;;;;;;;16.08;11.38;;;;;;;;;;5032229;28;20115;-70
2021/05/26 05:21:13;;;;;;;15.93;10.95;;;;;;;;;;5031390;28;20073;-70
2021/05/26 05:23:40;;;;;;;15.10;10.15;;;;;;;;;;5029582;28;20117;-70
2021/05/26 05:26:06;;;;;;;15.57;10.70;;;;;;;;;;5028499;28;20163;-70
2021/05/26 05:28:32;;;;;;;17.85;12.18;;;;;;;;;;5032727;28;20048;-70
2021/05/26 05:30:58;;;;;;;15.40;10.40;;;;;;;;;;5031808;28;20041;-70
2021/05/26 05:33:26;;;;;;;17.00;9.90;;;;;;;;;;5031255;28;20475;-71
2021/05/26 05:35:52;;;;;;;22.45;11.55;;;;;;;;;;5024721;28;20096;-71
2021/05/26 05:38:18;;;;;;;15.00;10.13;;;;;;;;;;5014179;28;20046;-71
2021/05/26 05:40:44;;;;;;;14.88;8.55;;;;;;;;;;5013923;28;20077;-71
2021/05/26 05:43:12;;;;;;;13.30;8.20;;;;;;;;;;5013475;28;20421;-71
2021/05/26 05:45:38;;;;;;;12.90;9.23;;;;;;;;;;5013919;28;20375;-71
2021/05/26 05:48:05;;;;;;;14.38;8.63;;;;;;;;;;5013384;28;20045;-71
2021/05/26 05:50:31;;;;;;;15.50;8.50;;;;;;;;;;5013620;28;20129;-71
2021/05/26 05:52:58;;;;;;;12.30;6.78;;;;;;;;;;5004635;28;20045;-71
2021/05/26 05:55:25;;;;;;;8.80;6.13;;;;;;;;;;5017786;28;20053;-71
2021/05/26 05:57:53;;;;;;;7.72;4.38;;;;;;;;;;5013688;28;20054;-71
2021/05/26 06:00:20;;;;;;;10.00;4.25;;;;;;;;;;5013543;28;20500;-71
2021/05/26 06:02:46;;;;;;;8.55;4.30;;;;;;;;;;5013944;28;20072;-72
2021/05/26 06:05:13;;;;;;;8.13;4.38;;;;;;;;;;5022082;28;20046;-71
2021/05/26 06:07:40;;;;;;;8.43;3.97;;;;;;;;;;5013441;28;20042;-71
2021/05/26 06:10:06;;;;;;;6.03;3.53;;;;;;;;;;5012850;28;20169;-72
2021/05/26 06:12:33;;;;;;;7.38;3.47;;;;;;;;;;5013207;28;20132;-72
2021/05/26 06:14:59;;;;;;;5.85;3.38;;;;;;;;;;5013116;28;20521;-72
2021/05/26 06:17:25;;;;;;;8.48;3.55;;;;;;;;;;5012452;28;20050;-72
2021/05/26 06:19:52;;;;;;;8.30;3.55;;;;;;;;;;5013097;28;20042;-71
2021/05/26 06:22:18;;;;;;;12.07;2.85;;;;;;;;;;5024363;28;20053;-72
2021/05/26 06:24:44;;;;;;;8.43;2.80;;;;;;;;;;5012498;28;20117;-71
2021/05/26 06:27:10;;;;;;;6.63;2.60;;;;;;;;;;5013022;28;20038;-72
2021/05/26 06:29:37;;;;;;;5.47;2.08;;;;;;;;;;5023853;28;20033;-72
2021/05/26 06:32:03;;;;;;;5.93;2.03;;;;;;;;;;5023405;28;20440;-72
2021/05/26 06:34:29;;;;;;;7.13;2.17;;;;;;;;;;5013211;28;20069;-72
2021/05/26 06:36:55;;;;;;;7.18;2.00;;;;;;;;;;5013832;28;20490;-72
2021/05/26 06:39:22;;;;;;;5.88;2.22;;;;;;;;;;5027861;28;20394;-72
2021/05/26 06:41:48;;;;;;;3.30;1.40;;;;;;;;;;5018168;28;20061;-72
2021/05/26 06:44:14;;;;;;;4.13;1.52;;;;;;;;;;5017161;28;20030;-72
2021/05/26 06:46:40;;;;;;;5.82;1.77;;;;;;;;;;5012588;28;20043;-72
2021/05/26 06:49:08;;;;;;;7.00;2.47;;;;;;;;;;5012501;28;20126;-72
2021/05/26 06:51:34;;;;;;;3.92;1.65;;;;;;;;;;5011849;28;20457;-72
2021/05/26 06:54:00;;;;;;;5.68;1.85;;;;;;;;;;5012616;28;20529;-72
2021/05/26 06:56:27;;;;;;;6.75;2.25;;;;;;;;;;5012204;28;20054;-72
2021/05/26 06:58:53;;;;;;;4.38;1.50;;;;;;;;;;5011416;28;20156;-72
2021/05/26 07:01:19;;;;;;;6.47;1.38;;;;;;;;;;5012969;28;20040;-72
2021/05/26 07:03:46;;;;;;;4.78;1.40;;;;;;;;;;5012533;28;20451;-72
2021/05/26 07:06:12;;;;;;;5.05;1.50;;;;;;;;;;5011383;28;20042;-72
2021/05/26 07:08:39;;;;;;;6.47;1.40;;;;;;;;;;5012510;28;20069;-72
2021/05/26 07:11:05;;;;;;;3.95;1.48;;;;;;;;;;5012096;28;20045;-72
2021/05/26 07:13:31;;;;;;;8.52;1.30;;;;;;;;;;5021499;28;20042;-72
2021/05/26 07:15:58;;;;;;;3.03;1.30;;;;;;;;;;5012066;28;20042;-72
2021/05/26 07:18:24;;;;;;;3.30;1.30;;;;;;;;;;5011662;28;20049;-73
2021/05/26 07:20:53;;;;;;;4.30;1.45;;;;;;;;;;5011439;28;20045;-73
2021/05/26 07:23:19;;;;;;;5.07;1.60;;;;;;;;;;5012012;28;20128;-72
2021/05/26 07:25:45;;;;;;;5.53;1.65;;;;;;;;;;5011836;28;20065;-72
2021/05/26 07:28:12;;;;;;;4.32;1.10;;;;;;;;;;5011025;28;20042;-71
2021/05/26 07:30:38;;;;;;;3.47;0.70;;;;;;;;;;5011798;28;20041;-72
2021/05/26 07:33:05;;;;;;;4.47;1.13;;;;;;;;;;5011513;28;20069;-72
2021/05/26 07:35:31;;;;;;;2.88;0.93;;;;;;;;;;5010797;28;20125;-72
2021/05/26 07:37:57;;;;;;;3.08;0.80;;;;;;;;;;5011692;28;20054;-72
2021/05/26 07:40:24;;;;;;;3.92;0.85;;;;;;;;;;5011287;28;20529;-72
2021/05/26 07:42:50;;;;;;;2.30;0.80;;;;;;;;;;5011059;28;20512;-72
2021/05/26 07:45:17;;;;;;;2.83;0.82;;;;;;;;;;5011477;28;20472;-73
2021/05/26 07:47:43;;;;;;;3.10;0.90;;;;;;;;;;5013569;28;20486;-72
2021/05/26 07:50:10;;;;;;;5.47;0.90;;;;;;;;;;4996464;28;20104;-72
2021/05/26 07:52:36;;;;;;;2.80;0.80;;;;;;;;;;5014196;28;20554;-72
2021/05/26 07:55:03;;;;;;;5.15;1.58;;;;;;;;;;5018995;28;20187;-72
2021/05/26 07:57:29;;;;;;;2.80;0.90;;;;;;;;;;5015981;28;20073;-72
2021/05/26 07:59:55;;;;;;;4.10;0.70;;;;;;;;;;5014014;28;20457;-72
2021/05/26 08:02:21;;;;;;;6.47;1.02;;;;;;;;;;5015785;28;20103;-72
2021/05/26 08:04:48;;;;;;;3.17;0.77;;;;;;;;;;5014062;28;20037;-72
2021/05/26 08:07:15;;;;;;;3.50;1.05;;;;;;;;;;5016424;28;20033;-72
2021/05/26 08:09:42;;;;;;;4.05;0.80;;;;;;;;;;5013242;28;20041;-72
2021/05/26 08:12:08;;;;;;;1.45;0.60;;;;;;;;;;5015059;28;20120;-72
2021/05/26 08:14:41;;;;;;;2.00;0.60;;;;;;;;;;5012202;28;20509;-72
2021/05/26 08:17:07;;;;;;;3.05;0.93;;;;;;;;;;5010032;28;20718;-72
2021/05/26 08:19:34;;;;;;;2.80;0.82;;;;;;;;;;5010965;28;20122;-72
2021/05/26 08:22:00;;;;;;;3.05;1.00;;;;;;;;;;5010892;28;20148;-72
2021/05/26 08:24:26;;;;;;;2.25;0.60;;;;;;;;;;5010108;28;20131;-72
2021/05/26 08:26:53;;;;;;;2.67;0.60;;;;;;;;;;5010685;28;20053;-72
2021/05/26 08:29:20;;;;;;;3.63;1.10;;;;;;;;;;5010690;28;20042;-72
2021/05/26 08:31:47;;;;;;;2.15;0.75;;;;;;;;;;5009925;28;20042;-72
2021/05/26 08:34:14;;;;;;;3.65;0.70;;;;;;;;;;5010847;28;20512;-72
2021/05/26 08:36:40;;;;;;;2.47;0.60;;;;;;;;;;5025036;28;20332;-73
2021/05/26 08:39:06;;;;;;;3.05;0.90;;;;;;;;;;5016201;28;20041;-72
2021/05/26 08:41:33;;;;;;;2.30;0.60;;;;;;;;;;5011716;28;20151;-72
2021/05/26 08:43:59;;;;;;;3.95;0.73;;;;;;;;;;5016307;28;20076;-72
2021/05/26 08:46:28;;;;;;;1.85;0.80;;;;;;;;;;5021060;28;20157;-71
2021/05/26 08:48:57;;;;;;;2.38;1.00;;;;;;;;;;5019890;28;20076;-72
2021/05/26 08:51:24;;;;;;;1.60;0.60;;;;;;;;;;5018731;28;20038;-72
2021/05/26 08:53:50;;;;;;;3.75;0.75;;;;;;;;;;5018815;28;20128;-72
2021/05/26 08:56:17;;;;;;;3.08;1.10;;;;;;;;;;5009522;28;20570;-72
2021/05/26 08:58:43;;;;;;;1.30;0.50;;;;;;;;;;5020504;28;20053;-72
2021/05/26 09:01:10;;;;;;;2.67;0.70;;;;;;;;;;5042555;28;20065;-72
2021/05/26 09:03:36;;;;;;;5.20;0.90;;;;;;;;;;5026055;28;20045;-72
2021/05/26 09:06:05;;;;;;;1.80;0.77;;;;;;;;;;5023380;28;20050;-72
2021/05/26 09:08:31;;;;;;;0.90;0.55;;;;;;;;;;5024741;28;20133;-72
2021/05/26 09:11:00;;;;;;;3.70;1.00;;;;;;;;;;5023924;28;20061;-72
2021/05/26 09:13:28;;;;;;;3.80;1.00;;;;;;;;;;5023481;28;20049;-72
2021/05/26 09:15:54;;;;;;;6.72;1.85;;;;;;;;;;5026969;28;20096;-72
2021/05/26 09:18:20;;;;;;;2.75;0.68;;;;;;;;;;5019122;28;20088;-72
2021/05/26 09:20:47;;;;;;;3.28;0.70;;;;;;;;;;5016024;28;20053;-72
2021/05/26 09:23:17;;;;;;;4.25;1.13;;;;;;;;;;5016539;28;20050;-72
2021/05/26 09:25:53;;;;;;;7.07;1.52;;;;;;;;;;5016984;28;20060;-72
2021/05/26 09:28:20;;;;;;;5.72;1.20;;;;;;;;;;5028664;28;20053;-72
2021/05/26 09:31:01;;;;;;;2.25;0.90;;;;;;;;;;5016902;28;20045;-72
2021/05/26 09:33:29;;;;;;;3.22;0.75;;;;;;;;;;5028384;28;20092;-72
2021/05/26 09:36:19;;;;;;;3.33;1.38;;;;;;;;;;5016501;28;20050;-72
2021/05/26 09:38:50;;;;;;;3.70;1.25;;;;;;;;;;5016180;28;20411;-72
2021/05/26 09:41:24;;;;;;;6.43;1.10;;;;;;;;;;5015907;28;20152;-72
2021/05/26 09:43:51;;;;;;;6.05;1.15;;;;;;;;;;5016450;28;20468;-72
2021/05/26 09:46:18;;;;;;;7.50;1.63;;;;;;;;;;5016471;28;20038;-72
2021/05/26 09:48:58;;;;;;;4.57;1.27;;;;;;;;;;5020439;28;20041;-72
2021/05/26 09:51:27;;;;;;;3.95;1.08;;;;;;;;;;5016596;28;20054;-72
2021/05/26 09:54:13;;;;;;;5.97;0.93;;;;;;;;;;5017888;28;20190;-73
2021/05/26 09:56:40;;;;;;;8.02;1.10;;;;;;;;;;5016394;28;20054;-73
2021/05/26 09:59:06;;;;;;;5.05;1.10;;;;;;;;;;5030459;28;20050;-73
2021/05/26 10:01:33;;;;;;;6.30;1.67;;;;;;;;;;5033798;28;20038;-73
2021/05/26 10:04:00;;;;;;;2.53;1.08;;;;;;;;;;5034377;28;20145;-73
2021/05/26 10:06:28;;;;;;;6.32;1.73;;;;;;;;;;5032391;28;20384;-73
2021/05/26 10:08:56;;;;;;;6.43;1.38;;;;;;;;;;5032803;28;20067;-73
2021/05/26 10:11:25;;;;;;;6.00;1.20;;;;;;;;;;5033409;28;20128;-73
2021/05/26 10:13:52;;;;;;;4.82;1.67;;;;;;;;;;5024607;28;20065;-72
2021/05/26 10:16:19;;;;;;;6.03;2.20;;;;;;;;;;5030526;28;20119;-73
2021/05/26 10:18:46;;;;;;;5.38;1.67;;;;;;;;;;5027804;28;20057;-73
2021/05/26 10:21:14;;;;;;;5.45;2.00;;;;;;;;;;5031085;28;20049;-72
2021/05/26 10:23:40;;;;;;;4.53;1.40;;;;;;;;;;5025968;28;20053;-73
2021/05/26 10:26:07;;;;;;;4.75;1.90;;;;;;;;;;5029027;28;20037;-73
2021/05/26 10:28:33;;;;;;;5.80;1.67;;;;;;;;;;5026249;28;20117;-72
2021/05/26 10:31:02;;;;;;;5.97;1.45;;;;;;;;;;5030238;28;20029;-72
2021/05/26 10:33:49;;;;;;;3.90;1.67;;;;;;;;;;5029604;28;20552;-73
2021/05/26 10:36:16;;;;;;;6.93;1.73;;;;;;;;;;5025314;28;20118;-72
2021/05/26 10:38:59;;;;;;;7.55;1.75;;;;;;;;;;5011136;28;20042;-73
2021/05/26 10:41:25;;;;;;;5.07;1.45;;;;;;;;;;5030894;28;20037;-72
2021/05/26 10:43:53;;;;;;;6.05;1.60;;;;;;;;;;5027528;28;20110;-73
2021/05/26 10:46:33;;;;;;;8.63;2.20;;;;;;;;;;5028504;28;20052;-73
2021/05/26 10:48:59;;;;;;;7.35;1.60;;;;;;;;;;5028005;28;20112;-72
2021/05/26 10:51:56;;;;;;;7.47;2.30;;;;;;;;;;5030905;28;20041;-72
2021/05/26 10:54:59;;;;;;;6.10;2.00;;;;;;;;;;5027852;28;20125;-72
2021/05/26 10:57:25;;;;;;;5.78;1.50;;;;;;;;;;5026749;28;20046;-72
2021/05/26 11:00:18;;;;;;;8.15;2.33;;;;;;;;;;5030307;28;20045;-72
2021/05/26 11:02:45;;;;;;;8.30;1.90;;;;;;;;;;5027565;28;20050;-72
2021/05/26 11:05:32;;;;;;;5.93;1.52;;;;;;;;;;5027970;28;20377;-72
2021/05/26 11:08:18;;;;;;;5.10;1.23;;;;;;;;;;5028319;28;20607;-73
2021/05/26 11:10:44;;;;;;;3.85;1.10;;;;;;;;;;5026685;28;20176;-72
2021/05/26 11:13:11;;;;;;;7.40;1.83;;;;;;;;;;5024353;28;20559;-72
2021/05/26 11:15:41;;;;;;;3.22;1.52;;;;;;;;;;5028579;28;20151;-72
2021/05/26 11:18:10;;;;;;;3.58;1.30;;;;;;;;;;5026404;28;20048;-73
2021/05/26 11:20:36;;;;;;;4.45;0.95;;;;;;;;;;5029880;28;20038;-72
2021/05/26 11:23:10;;;;;;;2.30;0.80;;;;;;;;;;5026901;28;20128;-72
2021/05/26 11:25:36;;;;;;;3.13;0.90;;;;;;;;;;5024743;28;20459;-72
2021/05/26 11:28:03;;;;;;;6.03;1.00;;;;;;;;;;5029215;28;20049;-71
2021/05/26 11:30:29;;;;;;;6.57;1.00;;;;;;;;;;5028313;28;20041;-71
2021/05/26 11:32:56;;;;;;;1.80;0.80;;;;;;;;;;5026174;28;20128;-71
2021/05/26 11:35:23;;;;;;;3.15;0.95;;;;;;;;;;5023904;28;20038;-71
2021/05/26 11:37:49;;;;;;;6.40;1.10;;;;;;;;;;5029036;28;20051;-72
2021/05/26 11:40:17;;;;;;;3.13;1.10;;;;;;;;;;5028453;28;20409;-72
2021/05/26 11:42:44;;;;;;;3.35;1.15;;;;;;;;;;5028797;28;20077;-73
2021/05/26 11:45:14;;;;;;;5.07;1.30;;;;;;;;;;5024178;28;20481;-74
2021/05/26 11:47:41;;;;;;;4.57;1.25;;;;;;;;;;5010895;28;20149;-73
2021/05/26 11:50:19;;;;;;;3.60;1.60;;;;;;;;;;5013730;28;20057;-78
2021/05/26 11:52:47;;;;;;;3.65;1.60;;;;;;;;;;5011427;28;20057;-72
2021/05/26 11:55:15;;;;;;;6.32;1.60;;;;;;;;;;5010453;28;20054;-71
2021/05/26 11:57:42;;;;;;;7.07;1.95;;;;;;;;;;5010873;28;20394;-72
2021/05/26 12:00:10;;;;;;;7.60;2.13;;;;;;;;;;5011331;28;20057;-72
2021/05/26 12:02:51;;;;;;;9.60;1.90;;;;;;;;;;5010480;28;20401;-71
2021/05/26 12:05:34;;;;;;;7.18;2.28;;;;;;;;;;5011222;28;20489;-72
2021/05/26 12:08:01;;;;;;;6.80;2.05;;;;;;;;;;5010337;28;20086;-72
2021/05/26 12:10:28;;;;;;;10.02;2.03;;;;;;;;;;5025625;28;20049;-71
2021/05/26 12:13:02;;;;;;;7.65;1.67;;;;;;;;;;5016916;28;20054;-72
2021/05/26 12:15:29;;;;;;;7.88;2.03;;;;;;;;;;5010249;28;20052;-72
2021/05/26 12:17:56;;;;;;;6.13;1.58;;;;;;;;;;5014077;28;20046;-72
2021/05/26 12:20:23;;;;;;;6.45;2.00;;;;;;;;;;5012290;28;20042;-72
2021/05/26 12:22:50;;;;;;;7.93;2.13;;;;;;;;;;5010080;28;20068;-72
2021/05/26 12:25:17;;;;;;;6.60;1.67;;;;;;;;;;5010710;28;20437;-72
2021/05/26 12:27:46;;;;;;;9.63;3.13;;;;;;;;;;5010722;28;20073;-72
2021/05/26 12:30:12;;;;;;;9.32;2.13;;;;;;;;;;5011974;28;20038;-72
2021/05/26 12:32:38;;;;;;;9.85;2.30;;;;;;;;;;5001566;28;20568;-72
2021/05/26 12:35:10;;;;;;;8.60;1.90;;;;;;;;;;5011344;28;20045;-72
2021/05/26 12:37:38;;;;;;;8.95;2.03;;;;;;;;;;5029330;28;20457;-72
2021/05/26 12:40:05;;;;;;;8.15;2.17;;;;;;;;;;5030134;28;20045;-72
2021/05/26 12:42:40;;;;;;;10.27;2.38;;;;;;;;;;5030326;28;20052;-72
2021/05/26 12:45:22;;;;;;;8.23;1.58;;;;;;;;;;5029274;28;20053;-72
2021/05/26 12:47:49;;;;;;;6.95;2.08;;;;;;;;;;5019752;28;20057;-72
2021/05/26 12:50:19;;;;;;;9.27;2.10;;;;;;;;;;5029229;28;20049;-72
2021/05/26 12:52:49;;;;;;;8.18;2.22;;;;;;;;;;5030041;28;20128;-72
2021/05/26 12:55:16;;;;;;;11.18;2.00;;;;;;;;;;5029726;28;20193;-71
2021/05/26 12:57:43;;;;;;;6.10;2.10;;;;;;;;;;5028919;28;20481;-72
2021/05/26 13:00:11;;;;;;;10.30;2.35;;;;;;;;;;5029999;28;20140;-72
2021/05/26 13:02:40;;;;;;;9.43;2.20;;;;;;;;;;5029883;28;20061;-72
2021/05/26 13:05:09;;;;;;;14.18;1.80;;;;;;;;;;5029331;28;20065;-72
2021/05/26 13:07:37;;;;;;;13.27;2.70;;;;;;;;;;5029584;28;20042;-72
2021/05/26 13:10:17;;;;;;;10.50;2.55;;;;;;;;;;5029783;28;20499;-72
2021/05/26 13:12:45;;;;;;;7.80;2.15;;;;;;;;;;5028777;28;20041;-72
2021/05/26 13:15:22;;;;;;;12.32;2.30;;;;;;;;;;5010629;28;20038;-72
2021/05/26 13:17:49;;;;;;;8.60;2.03;;;;;;;;;;5010208;28;20409;-72
2021/05/26 13:20:25;;;;;;;7.28;2.50;;;;;;;;;;5009465;28;20096;-72
2021/05/26 13:22:52;;;;;;;9.45;3.15;;;;;;;;;;5010123;28;20139;-72
2021/05/26 13:25:20;;;;;;;9.52;3.15;;;;;;;;;;5009373;28;20060;-72
2021/05/26 13:27:51;;;;;;;7.97;2.97;;;;;;;;;;5010148;28;20046;-72
2021/05/26 13:30:18;;;;;;;9.27;3.78;;;;;;;;;;5009778;28;20065;-72
2021/05/26 13:32:44;;;;;;;12.73;4.25;;;;;;;;;;5009338;28;20050;-72
2021/05/26 13:35:10;;;;;;;15.32;5.38;;;;;;;;;;5009678;28;20049;-75
2021/05/26 13:37:37;;;;;;;10.73;4.18;;;;;;;;;;5000059;28;20507;-77
2021/05/26 13:40:03;;;;;;;13.13;5.03;;;;;;;;;;5014998;28;20118;-79
2021/05/26 13:42:30;;;;;;;12.38;5.20;;;;;;;;;;5024113;28;20041;-78
2021/05/26 13:44:56;;;;;;;11.65;4.43;;;;;;;;;;5010589;28;20045;-78
2021/05/26 13:47:22;;;;;;;10.68;4.85;;;;;;;;;;5011310;28;20124;-78
2021/05/26 13:49:49;;;;;;;9.20;4.65;;;;;;;;;;5023338;28;20038;-78
2021/05/26 13:52:15;;;;;;;11.40;4.45;;;;;;;;;;5013719;28;20053;-78
2021/05/26 13:54:41;;;;;;;10.88;4.93;;;;;;;;;;5013254;28;20045;-78
2021/05/26 13:57:08;;;;;;;12.30;4.20;;;;;;;;;;5009600;28;20058;-78
2021/05/26 13:59:35;;;;;;;14.13;5.13;;;;;;;;;;5002840;28;20406;-78
2021/05/26 14:02:01;;;;;;;15.23;4.78;;;;;;;;;;5019954;28;20114;-78
2021/05/26 14:04:27;;;;;;;10.27;3.40;;;;;;;;;;5013360;28;20046;-78
2021/05/26 14:06:53;;;;;;;10.35;3.20;;;;;;;;;;5022112;28;20478;-78
2021/05/26 14:09:20;;;;;;;9.68;3.78;;;;;;;;;;5012414;28;20126;-78
2021/05/26 14:11:46;;;;;;;9.65;3.47;;;;;;;;;;5030988;28;20042;-78
2021/05/26 14:14:12;;;;;;;6.25;2.88;;;;;;;;;;5019478;28;20052;-78
2021/05/26 14:16:39;;;;;;;8.43;2.88;;;;;;;;;;5012609;28;20046;-78
2021/05/26 14:19:05;;;;;;;7.28;2.80;;;;;;;;;;5013596;28;20201;-78
2021/05/26 14:21:32;;;;;;;8.95;3.72;;;;;;;;;;5012531;28;20421;-78
2021/05/26 14:23:58;;;;;;;6.03;3.33;;;;;;;;;;5013341;28;20077;-77
2021/05/26 14:26:25;;;;;;;7.15;3.22;;;;;;;;;;5009884;28;20095;-78
2021/05/26 14:28:52;;;;;;;8.02;3.47;;;;;;;;;;5014234;28;20041;-78
2021/05/26 14:31:18;;;;;;;8.55;3.33;;;;;;;;;;5020902;28;20042;-78
2021/05/26 14:33:44;;;;;;;10.02;3.70;;;;;;;;;;5015238;28;20050;-78
2021/05/26 14:36:13;;;;;;;8.13;3.33;;;;;;;;;;5021526;28;20045;-78
2021/05/26 14:38:45;;;;;;;7.63;3.30;;;;;;;;;;5012939;28;20057;-78
2021/05/26 14:41:11;;;;;;;10.30;3.63;;;;;;;;;;5013220;28;20100;-78